Sierra Nevada Aquatic Research Lab (SNARL) Reserve, Santa Monica Mtns, California Weather observations

Data are for 10 minute period ending at time listed.
 Day   Time   Solar   Ave.   Ave.  Ave.  Vector  Max.   Baro.   Total    
  of    of     Rad.   Air    Rel.  Wind   Wind   Wind  Press.  Precip.   
Year   Day            Temp.  Hum.  Speed  Dir.   Gust                    
2014   (PST)  Kw/m2    F      %     mph   deg.    mph    mb.     in.     
-------------------------------------------------------------------------
 211   14:20   0.33   62.8    72    7.5    88    10.5   792.6    0.00 
 211   14:30   0.27   62.6    72    6.8    86    10.4   792.6    0.00 
 211   14:40   0.51   63.0    70    5.4    86     8.8   792.5    0.00 
 211   14:50   0.41   65.2    59    2.3    83     4.5   792.4    0.00 
 211   15:00   0.41   65.8    58    3.9   103     8.8   792.3    0.00 
 211   15:10   0.27   65.8    58    6.1   109     9.9   792.2    0.00 
 211   15:20   0.22   65.2    59    3.4    73     8.2   792.2    0.00 
 211   15:30   0.20   65.1    58    2.4    86     4.4   792.2    0.00 
 211   15:40   0.19   65.6    59    0.7    48     3.4   792.2    0.00 
 211   15:50   0.21   65.8    56    0.8    70     3.2   792.1    0.00 
 211   16:00   0.24   66.2    57    1.9   324     3.2   792.1    0.00 
 211   16:10   0.25   66.0    57    1.9   325     3.5   792.0    0.00 
 211   16:20   0.28   66.5    55    1.7    68     3.4   791.8    0.00 
 211   16:30   0.37   67.6    53    0.8   292     2.3   791.8    0.00 
 211   16:40   0.23   68.0    52    1.3   315     3.7   791.6    0.00 
 211   16:50   0.19   67.1    54    1.6   273     2.9   791.5    0.00 
 211   17:00   0.17   66.9    56    1.1   300     2.5   791.3    0.00 
 211   17:10   0.15   67.0    55    1.1   282     2.9   791.3    0.00 
 211   17:20   0.12   66.2    58    3.0   294     5.5   791.4    0.00 
 211   17:30   0.08   65.0    60    3.7   282     5.6   791.5    0.00 
 211   17:40   0.08   64.5    60    3.5   277     5.0   791.5    0.00 
 211   17:50   0.08   64.5    62    2.8   276     4.2   791.5    0.00 
 211   18:00   0.07   64.5    61    2.4   251     4.7   791.5    0.00 
 211   18:10   0.05   63.7    64    1.6    53     3.3   791.5    0.00 
 211   18:20   0.04   62.9    67    2.0    58     3.7   791.5    0.00 
 211   18:30   0.03   62.1    69    2.5    79     4.7   791.4    0.00 
 211   18:40   0.03   61.5    72    0.6    25     1.9   791.4    0.00 
 211   18:50   0.01   60.3    76    0.0   136     0.6   791.4    0.00 
 211   19:00   0.00   59.0    80    0.4   239     1.6   791.4    0.00 
 211   19:10   0.00   58.1    82    0.1    31     0.9   791.4    0.00 
 211   19:20   0.00   56.6    84    2.7   218     4.9   791.4    0.00 
 211   19:30   0.00   55.5    84    3.4   230     5.0   791.3    0.00 
 211   19:40   0.00   55.3    84    3.9   237     5.3   791.2    0.00 
 211   19:50   0.00   55.9    82    3.3   258     4.9   791.2    0.00 
 211   20:00   0.00   56.2    80    3.3   267     5.6   791.3    0.00 
 211   20:10   0.00   56.4    80    3.2   275     4.9   791.3    0.00 
 211   20:20   0.00   56.4    80    3.2   315     5.5   791.3    0.00 
 211   20:30   0.00   55.6    82    0.7   328     3.3   791.4    0.00 
 211   20:40   0.00   54.1    85    0.9   178     2.1   791.4    0.00 
 211   20:50   0.00   52.9    88    1.7   270     2.7   791.4    0.00 
 211   21:00   0.00   52.7    90    1.8   337     4.2   791.4    0.00 
 211   21:10   0.00   52.4    88    2.6   233     4.3   791.4    0.00 
 211   21:20   0.00   51.4    90    2.7   236     4.0   791.5    0.00 
 211   21:30   0.00   51.1    90    2.1   306     4.7   791.7    0.00 
 211   21:40   0.00   50.4    90    2.9   169     4.2   791.8    0.00 
 211   21:50   0.00   50.8    90    5.3   200     7.2   791.7    0.00 
 211   22:00   0.00   51.8    88    6.2   204     9.0   791.6    0.00 
 211   22:10   0.00   53.5    82    6.7   197    10.7   791.5    0.00 
 211   22:20   0.00   54.1    81    3.2   292     5.7   791.5    0.00 
 211   22:30   0.00   54.7    78    6.1   324    12.8   791.4    0.00 
 211   22:40   0.00   54.6    78    4.8   282    10.1   791.4    0.00 
 211   22:50   0.00   55.1    76    4.5   278     8.9   791.4    0.00 
 211   23:00   0.00   55.9    72    6.0   300     8.3   791.4    0.00 
 211   23:10   0.00   55.3    74    4.7   250     8.8   791.3    0.00 
 211   23:20   0.00   53.9    78    2.4   298     3.9   791.2    0.00 
 211   23:30   0.00   51.9    82    1.4    79     3.1   791.3    0.00 
 211   23:40   0.00   51.0    85    1.2   333     3.6   791.2    0.00 
 211   23:50   0.00   49.8    87    1.4   194     2.3   791.3    0.00 
 212    0:00   0.00   49.2    88    1.8   189     3.3   791.2    0.00 
 212    0:10   0.00   49.4    88    3.3    30     6.9   791.4    0.00 
 212    0:20   0.00   49.2    89    2.3   144     5.3   791.4    0.00 
 212    0:30   0.00   49.4    88    1.2   291     3.2   791.4    0.00 
 212    0:40   0.00   48.9    89    1.3   222     3.0   791.3    0.00 
 212    0:50   0.00   49.1    90    3.9   332     5.8   791.2    0.00 
 212    1:00   0.00   49.8    88    3.9   324     8.2   791.2    0.00 
 212    1:10   0.00   51.4    83    2.2    98     6.4   791.2    0.00 
 212    1:20   0.00   50.7    86    2.2    79     4.4   791.2    0.00 
 212    1:30   0.00   50.6    86    1.7   243     3.4   791.2    0.00 
 212    1:40   0.00   50.2    88    1.5   322     3.9   791.2    0.00 
 212    1:50   0.00   49.8    88    1.0   149     3.4   791.0    0.00 
 212    2:00   0.00   49.5    90    0.5   287     1.7   791.0    0.00 
 212    2:10   0.00   49.4    91    1.3   262     2.8   790.9    0.00 
 212    2:20   0.00   50.0    89    1.1   266     3.3   790.7    0.00 
 212    2:30   0.00   50.0    90    0.8    71     2.3   790.7    0.00 
 212    2:40   0.00   49.7    90    2.1   107     4.6   790.7    0.00 
 212    2:50   0.00   50.3    88    1.0    87     2.6   790.7    0.00 
 212    3:00   0.00   50.3    89    1.7    42     5.5   790.8    0.00 
 212    3:10   0.00   49.5    91    3.3   204     4.0   790.7    0.00 
 212    3:20   0.00   49.4    91    0.4   188     2.6   790.6    0.00 
 212    3:30   0.00   49.2    92    1.8   245     3.9   790.7    0.00 
 212    3:40   0.00   48.5    92    2.6   217     3.9   790.6    0.00 
 212    3:50   0.00   48.8    90    3.4   257     5.3   790.6    0.00 
 212    4:00   0.00   49.9    86    4.7   319     6.6   790.6    0.00 
 212    4:10   0.00   49.5    87    2.2   297     5.0   790.6    0.00 
 212    4:20   0.00   48.8    89    2.6   326     5.3   790.6    0.00 
 212    4:30   0.00   47.6    91    0.9    90     2.0   790.6    0.00 
 212    4:40   0.00   46.4    93    0.6    61     2.3   790.7    0.00 
 212    4:50   0.00   45.4    95    0.5   194     1.4   790.8    0.00 
 212    5:00   0.00   44.7    95    1.3   174     2.2   790.8    0.00 
 212    5:10   0.00   44.5    96    1.9   250     3.4   790.7    0.00 
 212    5:20   0.01   45.1    96    2.1   126     4.1   790.8    0.00 
 212    5:30   0.03   45.9    95    2.0    17     3.9   790.9    0.00 
 212    5:40   0.06   47.5    91    1.1   109     2.6   791.0    0.00 
 212    5:50   0.11   48.5    91    0.7   187     2.0   791.0    0.00 
 212    6:00   0.13   51.0    85    0.8   171     2.8   791.0    0.00 
 212    6:10   0.15   53.3    81    1.0   312     1.9   791.0    0.00 
 212    6:20   0.16   55.4    75    1.5   335     3.9   790.9    0.00 
 212    6:30   0.17   55.3    74    3.1   344     4.6   790.8    0.00 
 212    6:40   0.22   56.8    71    2.0    17     3.9   790.8    0.00 
 212    6:50   0.26   57.5    69    1.6    14     4.5   790.8    0.00 
 212    7:00   0.29   58.4    67    0.6   349     2.1   790.7    0.00 
 212    7:10   0.33   61.1    62    0.7   354     2.3   790.7    0.00 
 212    7:20   0.36   61.6    61    0.4   329     1.8   790.7    0.00 
 212    7:30   0.40   62.7    60    1.3    44     3.2   790.7    0.00 
 212    7:40   0.44   63.2    59    2.1    58     3.8   790.8    0.00 
 212    7:50   0.48   63.6    61    2.0    79     4.1   790.9    0.00 
 212    8:00   0.51   65.0    57    1.5    25     3.5   790.9    0.00 
 212    8:10   0.54   66.1    55    2.5    53     5.3   790.9    0.00 
 212    8:20   0.57   66.2    57    3.6    56     7.6   790.9    0.00 
 212    8:30   0.61   66.1    56    3.6    69     8.2   790.9    0.00 
 212    8:40   0.60   67.2    53    2.9    72     5.7   790.9    0.00 
 212    8:50   0.67   68.7    50    1.6    76     4.2   790.8    0.00 
 212    9:00   0.71   71.1    46    1.3    45     3.7   790.8    0.00 
 212    9:10   0.74   72.7    43    2.3    92     4.9   790.8    0.00 
 212    9:20   0.75   73.0    41    2.1    46     7.3   790.8    0.00 
 212    9:30   0.76   73.0    42    3.5    52     8.7   790.8    0.00 
 212    9:40   0.78   73.3    42    4.8    92     8.8   790.8    0.00 
 212    9:50   0.82   73.7    38    3.8    89     7.5   790.7    0.00 
 212   10:00   0.84   74.1    39    5.8    95     9.6   790.7    0.00 
 212   10:10   0.86   75.1    38    4.0    68     8.8   790.7    0.00 
 212   10:20   0.88   75.3    37    3.4    62     9.6   790.6    0.00 
 212   10:30   0.90   75.0    36    5.0    78    12.7   790.5    0.00 
 212   10:40   0.91   75.6    35    4.6    90    11.4   790.5    0.00 
 212   10:50   0.94   76.4    34    4.8    70    11.0   790.4    0.00 
 212   11:00   0.97   76.6    34    3.7    46     9.1   790.4    0.00 
 212   11:10   0.99   76.8    33    3.9    45    10.0   790.3    0.00 
 212   11:20   1.04   77.3    32    4.4   114    10.2   790.2    0.00 
 212   11:30   0.89   78.3    32    5.3    65    10.7   790.1    0.00 
 212   11:40   0.42   76.3    33    5.1    56    12.8   790.1    0.00 
 212   11:50   0.21   74.7    34    3.2   284     8.9   790.1    0.00 
 212   12:00   0.22   74.0    40    4.6   254     8.7   790.1    0.00 
 212   12:10   0.32   72.9    41    7.0   216    12.3   790.1    0.00 
 212   12:20   0.32   74.0    36    4.0   174     6.9   790.0    0.00 
 212   12:30   1.16   76.7    31    1.6   154     3.2   789.9    0.00 
 212   12:40   0.96   78.8    28    2.1    35     6.0   789.7    0.00 
 212   12:50   0.39   77.7    29    5.2   350     9.3   789.7    0.00 
 212   13:00   0.64   77.0    32    3.5   352     7.4   789.6    0.00 
 212   13:10   0.83   79.4    29    5.0   334    15.1   789.5    0.00 
 212   13:20   0.49   78.1    31    6.9   358    13.1   789.4    0.00 
 212   13:30   0.26   76.8    34    3.7   350    10.7   789.4    0.00 
 212   13:40   0.30   76.1    33    4.3   329     8.0   789.4    0.00 
 212   13:50   0.37   76.4    32    3.3   329     6.8   789.3    0.00 
 212   14:00   0.31   77.3    30    1.9   333     6.8   789.3    0.00 
 212   14:10   0.20   76.7    31    3.9   325     8.4   789.4    0.00 

Return to SNARL Reserve graphs page.


Western Regional Climate Center,wrcc@dri.edu